Time;durP1;ratioP1;P1;durP2;ratioP2;P2;SDS_P1;SDS_P2;PMS_P1;PMS_P2;Temp;Humidity;BMP_temperature;BMP_pressure;BME280_temperature;BME280_humidity;BME280_pressure;Samples;Min_cycle;Max_cycle;Signal;HPM_P1;HPM_P2
2023/05/16 00:07:07;;;;;;;;;;;10.80;99.90;;;;;;8343209;28;19923;-74
2023/05/16 00:11:09;;;;;;;;;;;10.70;99.90;;;;;;8353718;28;19931;-74
2023/05/16 00:15:14;;;;;;;;;;;10.70;99.90;;;;;;8355134;28;19924;-74
2023/05/16 00:19:15;;;;;;;;;;;10.70;99.90;;;;;;8359537;28;19925;-74
2023/05/16 00:23:17;;;;;;;;;;;10.70;99.90;;;;;;8357787;28;19925;-73
2023/05/16 00:27:20;;;;;;;;;;;10.60;99.90;;;;;;8351091;28;20026;-73
2023/05/16 00:31:22;;;;;;;;;;;10.60;99.90;;;;;;8349392;28;19928;-74
2023/05/16 00:35:23;;;;;;;;;;;10.60;99.90;;;;;;8360645;28;20296;-73
2023/05/16 00:39:25;;;;;;;;;;;10.60;99.90;;;;;;8364192;28;19992;-73
2023/05/16 00:43:27;;;;;;;;;;;10.50;99.90;;;;;;8363797;28;19925;-74
2023/05/16 00:47:28;;;;;;;;;;;10.50;99.90;;;;;;8354953;28;19975;-74
2023/05/16 00:51:30;;;;;;;;;;;10.50;99.90;;;;;;8357910;28;19939;-74
2023/05/16 00:55:31;;;;;;;;;;;10.50;99.90;;;;;;8351903;28;20400;-74
2023/05/16 00:59:33;;;;;;;;;;;10.40;99.90;;;;;;8356049;28;20400;-74
2023/05/16 01:03:36;;;;;;;;;;;10.30;99.90;;;;;;8362656;28;20416;-73
2023/05/16 01:07:38;;;;;;;;;;;10.30;99.90;;;;;;8391420;28;19924;-74
2023/05/16 01:11:48;;;;;;;;;;;10.20;99.90;;;;;;8377660;28;20292;-74
2023/05/16 01:15:55;;;;;;;;;;;10.20;99.90;;;;;;8384247;28;19979;-74
2023/05/16 01:20:14;;;;;;;;;;;10.20;99.90;;;;;;8387231;28;19925;-74
2023/05/16 01:24:26;;;;;;;;;;;10.20;99.90;;;;;;8388555;28;19928;-74
2023/05/16 01:28:28;;;;;;;;;;;10.20;99.90;;;;;;8374971;28;19924;-74
2023/05/16 01:32:30;;;;;;;;;;;10.10;99.90;;;;;;8371449;28;20466;-74
2023/05/16 01:36:31;;;;;;;;;;;10.10;99.90;;;;;;8389297;28;20269;-74
2023/05/16 01:40:51;;;;;;;;;;;10.10;99.90;;;;;;8383402;28;19972;-74
2023/05/16 01:45:03;;;;;;;;;;;10.10;99.90;;;;;;8387083;28;19932;-76
2023/05/16 01:49:16;;;;;;;;;;;10.00;99.90;;;;;;8383584;28;19938;-75
2023/05/16 01:53:44;;;;;;;;;;;10.00;99.90;;;;;;8387990;28;20295;-76
2023/05/16 01:57:47;;;;;;;;;;;10.00;99.90;;;;;;8380685;28;20811;-76
2023/05/16 02:01:51;;;;;;;;;;;9.90;99.90;;;;;;8376763;28;19924;-76
2023/05/16 02:05:53;;;;;;;;;;;9.90;99.90;;;;;;8386823;28;19930;-76
2023/05/16 02:09:54;;;;;;;;;;;9.90;99.90;;;;;;8394880;28;19972;-75
2023/05/16 02:13:56;;;;;;;;;;;9.90;99.90;;;;;;8397506;28;19925;-75
2023/05/16 02:17:58;;;;;;;;;;;9.80;99.90;;;;;;8396250;28;19928;-75
2023/05/16 02:22:00;;;;;;;;;;;9.80;99.90;;;;;;8393392;28;19979;-75
2023/05/16 02:26:02;;;;;;;;;;;9.80;99.90;;;;;;8396387;28;19971;-76
2023/05/16 02:30:04;;;;;;;;;;;9.70;99.90;;;;;;8374241;28;19928;-76
2023/05/16 02:34:06;;;;;;;;;;;9.70;99.90;;;;;;8396496;28;19947;-76
2023/05/16 02:38:08;;;;;;;;;;;9.70;99.90;;;;;;8391303;28;20341;-76
2023/05/16 02:42:10;;;;;;;;;;;9.60;99.90;;;;;;8375908;28;19924;-76
2023/05/16 02:46:24;;;;;;;;;;;9.60;99.90;;;;;;8378285;28;19928;-75
2023/05/16 02:50:25;;;;;;;;;;;9.60;99.90;;;;;;8389671;28;19931;-75
2023/05/16 02:54:27;;;;;;;;;;;9.60;99.90;;;;;;8377244;28;19978;-75
2023/05/16 02:58:29;;;;;;;;;;;9.60;99.90;;;;;;8390200;28;19974;-76
2023/05/16 03:02:30;;;;;;;;;;;9.60;99.90;;;;;;8378378;28;19925;-75
2023/05/16 03:06:32;;;;;;;;;;;9.50;99.90;;;;;;8371134;28;19932;-75
2023/05/16 03:10:33;;;;;;;;;;;9.50;99.90;;;;;;8392445;28;19928;-75
2023/05/16 03:14:35;;;;;;;;;;;9.40;99.90;;;;;;8394491;28;19924;-75
2023/05/16 03:18:37;;;;;;;;;;;9.40;99.90;;;;;;8372645;28;21718;-76
2023/05/16 03:32:46;;;;;;;;;;;9.40;99.90;;;;;;8393404;28;20083;-75
2023/05/16 03:36:48;;;;;;;;;;;9.30;99.90;;;;;;8403853;28;20415;-75
2023/05/16 03:40:50;;;;;;;;;;;9.30;99.90;;;;;;8375244;28;19932;-75
2023/05/16 03:44:51;;;;;;;;;;;9.30;99.90;;;;;;8385766;28;19933;-75
2023/05/16 03:48:53;;;;;;;;;;;9.30;99.90;;;;;;8367542;28;19932;-75
2023/05/16 03:52:55;;;;;;;;;;;9.30;99.90;;;;;;8371618;28;19931;-75
2023/05/16 03:56:56;;;;;;;;;;;9.30;99.90;;;;;;8381566;28;19932;-75
2023/05/16 04:00:58;;;;;;;;;;;9.20;99.90;;;;;;8390810;28;19988;-74
2023/05/16 04:05:00;;;;;;;;;;;9.30;99.90;;;;;;8391488;28;19933;-75
2023/05/16 04:09:01;;;;;;;;;;;9.20;99.90;;;;;;8389057;28;19939;-74
2023/05/16 04:13:03;;;;;;;;;;;9.20;99.90;;;;;;8383539;28;19928;-75
2023/05/16 04:17:05;;;;;;;;;;;9.20;99.90;;;;;;8378053;28;19947;-75
2023/05/16 04:21:09;;;;;;;;;;;9.20;99.90;;;;;;8388760;28;19960;-75
2023/05/16 04:25:11;;;;;;;;;;;9.30;99.90;;;;;;8385935;28;19959;-74
2023/05/16 04:29:13;;;;;;;;;;;9.30;99.90;;;;;;8372244;28;20399;-75
2023/05/16 04:33:15;;;;;;;;;;;9.40;99.90;;;;;;8380793;28;20380;-75
2023/05/16 04:37:17;;;;;;;;;;;9.40;99.90;;;;;;8383370;28;19924;-75
2023/05/16 04:41:18;;;;;;;;;;;9.50;99.90;;;;;;8381781;28;20388;-75
2023/05/16 04:45:20;;;;;;;;;;;9.50;99.90;;;;;;8392354;28;20008;-75
2023/05/16 04:49:22;;;;;;;;;;;9.60;99.90;;;;;;8389726;28;19982;-75
2023/05/16 04:53:24;;;;;;;;;;;9.60;99.90;;;;;;8380071;28;19928;-74
2023/05/16 04:57:26;;;;;;;;;;;9.70;99.90;;;;;;8391388;28;19931;-75
2023/05/16 05:01:28;;;;;;;;;;;9.70;99.90;;;;;;8400936;28;19974;-75
2023/05/16 05:05:30;;;;;;;;;;;9.80;99.90;;;;;;8375621;28;19947;-75
2023/05/16 05:09:31;;;;;;;;;;;9.80;99.90;;;;;;8371966;28;19928;-75
2023/05/16 05:13:33;;;;;;;;;;;9.90;99.90;;;;;;8389522;28;20644;-75
2023/05/16 05:17:36;;;;;;;;;;;10.00;99.90;;;;;;8399597;28;19924;-74
2023/05/16 05:21:38;;;;;;;;;;;10.00;99.90;;;;;;8373963;28;19924;-75
2023/05/16 05:25:39;;;;;;;;;;;10.10;99.90;;;;;;8380824;28;19925;-74
2023/05/16 05:29:41;;;;;;;;;;;10.20;99.90;;;;;;8396754;28;19968;-75
2023/05/16 05:33:43;;;;;;;;;;;10.30;99.90;;;;;;8396289;28;19963;-75
2023/05/16 05:37:45;;;;;;;;;;;10.40;99.90;;;;;;8396046;28;19932;-75
2023/05/16 05:41:46;;;;;;;;;;;10.50;99.90;;;;;;8387260;28;19991;-75
2023/05/16 05:45:48;;;;;;;;;;;10.50;99.90;;;;;;8400086;28;19932;-75
2023/05/16 05:49:50;;;;;;;;;;;10.60;99.90;;;;;;8393260;28;20359;-75
2023/05/16 05:53:51;;;;;;;;;;;10.60;99.90;;;;;;8390826;28;19924;-75
2023/05/16 05:57:53;;;;;;;;;;;10.70;99.90;;;;;;8389624;28;20385;-75
2023/05/16 06:01:55;;;;;;;;;;;10.80;99.90;;;;;;8373558;28;19933;-75
2023/05/16 06:05:57;;;;;;;;;;;10.90;99.90;;;;;;8366401;28;19940;-75
2023/05/16 06:10:03;;;;;;;;;;;11.00;99.90;;;;;;8390707;28;20300;-75
2023/05/16 06:14:06;;;;;;;;;;;11.20;99.90;;;;;;8390179;28;19936;-75
2023/05/16 06:18:08;;;;;;;;;;;11.20;99.90;;;;;;8393731;28;19925;-75
2023/05/16 06:22:10;;;;;;;;;;;11.30;99.90;;;;;;8392777;28;19968;-75
2023/05/16 06:26:11;;;;;;;;;;;11.30;99.90;;;;;;8383673;28;19932;-75
2023/05/16 06:30:13;;;;;;;;;;;11.40;99.90;;;;;;8386482;28;19968;-75
2023/05/16 06:34:15;;;;;;;;;;;11.50;99.90;;;;;;8367223;28;19928;-74
2023/05/16 06:38:18;;;;;;;;;;;11.60;99.90;;;;;;8391256;28;19972;-75
2023/05/16 06:42:19;;;;;;;;;;;11.80;99.90;;;;;;8405886;28;19925;-74
2023/05/16 06:46:21;;;;;;;;;;;11.90;99.90;;;;;;8374091;28;19978;-74
2023/05/16 06:50:23;;;;;;;;;;;12.00;99.90;;;;;;8370005;28;19939;-74
2023/05/16 06:54:25;;;;;;;;;;;12.00;99.90;;;;;;8387720;28;19929;-74
2023/05/16 06:58:27;;;;;;;;;;;12.00;99.90;;;;;;8390045;28;19958;-74
2023/05/16 07:02:28;;;;;;;;;;;12.00;99.90;;;;;;8387795;28;20381;-74
2023/05/16 07:06:30;;;;;;;;;;;12.10;99.90;;;;;;8382926;28;19924;-74
2023/05/16 07:10:32;;;;;;;;;;;12.20;99.90;;;;;;8393635;28;19924;-74
2023/05/16 07:14:34;;;;;;;;;;;12.20;99.90;;;;;;8385556;28;19924;-74
2023/05/16 07:18:35;;;;;;;;;;;12.10;99.90;;;;;;8407277;28;19932;-74
2023/05/16 07:22:37;;;;;;;;;;;12.20;99.90;;;;;;8386378;28;20281;-74
2023/05/16 07:26:39;;;;;;;;;;;12.20;99.90;;;;;;8385153;28;19931;-74
2023/05/16 07:45:51;;;;;;;;;;;13.10;99.90;;;;;;8384170;28;20053;-75
2023/05/16 07:49:53;;;;;;;;;;;13.40;99.90;;;;;;8390266;28;19954;-75
2023/05/16 07:53:55;;;;;;;;;;;13.40;99.90;;;;;;8383789;28;19925;-75
2023/05/16 07:57:57;;;;;;;;;;;13.30;99.90;;;;;;8387264;28;19928;-75
2023/05/16 08:01:58;;;;;;;;;;;13.20;99.90;;;;;;8384924;28;19970;-74
2023/05/16 08:06:00;;;;;;;;;;;13.10;99.90;;;;;;8331484;28;19925;-74
2023/05/16 08:10:02;;;;;;;;;;;13.10;99.90;;;;;;8326931;28;19971;-75
2023/05/16 08:14:04;;;;;;;;;;;13.00;99.90;;;;;;8334140;28;20443;-75
2023/05/16 08:18:11;;;;;;;;;;;12.90;99.90;;;;;;8341282;28;20104;-75
2023/05/16 08:22:12;;;;;;;;;;;12.70;99.90;;;;;;8333992;28;19933;-75
2023/05/16 08:26:15;;;;;;;;;;;12.60;99.90;;;;;;8330111;28;20337;-75
2023/05/16 08:30:16;;;;;;;;;;;12.50;99.90;;;;;;8325916;28;19925;-75
2023/05/16 08:34:18;;;;;;;;;;;12.50;99.90;;;;;;8332483;28;19929;-75
2023/05/16 08:38:22;;;;;;;;;;;12.60;99.90;;;;;;8335329;28;20305;-75
2023/05/16 08:42:24;;;;;;;;;;;12.80;99.90;;;;;;8338661;28;19954;-75
2023/05/16 08:46:27;;;;;;;;;;;12.90;99.90;;;;;;8332507;28;19929;-75
2023/05/16 08:50:30;;;;;;;;;;;12.90;99.90;;;;;;8325588;28;20289;-75
2023/05/16 08:54:32;;;;;;;;;;;12.80;99.90;;;;;;8335041;28;19979;-76
2023/05/16 08:58:34;;;;;;;;;;;12.80;99.90;;;;;;8331835;28;20384;-75
2023/05/16 09:02:37;;;;;;;;;;;12.80;99.90;;;;;;8327326;28;21558;-75
2023/05/16 09:06:38;;;;;;;;;;;13.00;99.90;;;;;;8383924;28;19933;-76
2023/05/16 09:10:40;;;;;;;;;;;13.20;99.90;;;;;;8378445;28;19933;-75
2023/05/16 09:14:42;;;;;;;;;;;13.40;99.90;;;;;;8369140;28;19924;-75
2023/05/16 09:18:53;;;;;;;;;;;13.50;99.90;;;;;;8377270;28;19970;-75
2023/05/16 09:22:56;;;;;;;;;;;13.40;99.90;;;;;;8361432;28;19925;-75
2023/05/16 09:27:06;;;;;;;;;;;13.50;99.90;;;;;;8378526;28;19925;-76
2023/05/16 09:31:18;;;;;;;;;;;13.50;99.90;;;;;;8363521;28;20588;-75
2023/05/16 09:35:20;;;;;;;;;;;13.50;99.90;;;;;;8378633;28;19925;-75
2023/05/16 09:39:50;;;;;;;;;;;13.60;99.90;;;;;;8362717;28;19960;-75
2023/05/16 09:43:52;;;;;;;;;;;13.80;99.90;;;;;;8377369;28;20657;-75
2023/05/16 09:47:57;;;;;;;;;;;13.90;99.90;;;;;;8365534;28;20364;-75
2023/05/16 09:52:00;;;;;;;;;;;14.20;99.90;;;;;;8390927;28;19925;-75
2023/05/16 09:56:03;;;;;;;;;;;14.40;99.90;;;;;;8376184;28;19951;-75
2023/05/16 10:00:08;;;;;;;;;;;14.40;99.90;;;;;;8376124;28;22909;-75
2023/05/16 10:04:12;;;;;;;;;;;14.40;99.90;;;;;;8374384;28;20014;-75
2023/05/16 10:08:15;;;;;;;;;;;14.40;99.90;;;;;;8364509;28;19924;-75
2023/05/16 10:12:16;;;;;;;;;;;14.40;99.90;;;;;;8362968;28;19936;-75
2023/05/16 10:16:20;;;;;;;;;;;14.30;99.90;;;;;;8365540;28;20414;-74
2023/05/16 10:20:22;;;;;;;;;;;14.20;99.90;;;;;;8368624;28;19929;-75
2023/05/16 10:24:47;;;;;;;;;;;14.00;99.90;;;;;;8366263;28;19939;-75
2023/05/16 10:28:49;;;;;;;;;;;13.90;99.90;;;;;;8339527;28;19925;-75
2023/05/16 10:32:52;;;;;;;;;;;14.00;99.90;;;;;;8366372;28;19925;-75
2023/05/16 10:36:54;;;;;;;;;;;14.00;99.90;;;;;;8363219;28;19929;-75
2023/05/16 10:40:56;;;;;;;;;;;13.90;99.90;;;;;;8371488;28;20288;-75
2023/05/16 10:45:17;;;;;;;;;;;13.90;99.90;;;;;;8371944;28;20319;-75
2023/05/16 10:49:20;;;;;;;;;;;13.90;99.90;;;;;;8388978;28;19969;-75
2023/05/16 10:53:28;;;;;;;;;;;14.10;99.90;;;;;;8358286;28;19971;-75
2023/05/16 10:57:31;;;;;;;;;;;14.30;99.90;;;;;;8375232;28;19974;-75
2023/05/16 11:01:33;;;;;;;;;;;14.40;99.90;;;;;;8368697;28;19928;-75
2023/05/16 11:05:35;;;;;;;;;;;14.40;99.90;;;;;;8374279;28;20384;-75
2023/05/16 11:09:42;;;;;;;;;;;14.30;99.90;;;;;;8383148;28;19944;-75
2023/05/16 11:13:53;;;;;;;;;;;14.30;99.90;;;;;;8358765;28;19932;-75
2023/05/16 11:18:14;;;;;;;;;;;14.40;99.90;;;;;;8350089;28;19925;-75
2023/05/16 11:22:21;;;;;;;;;;;14.60;99.90;;;;;;8375241;28;19928;-75
2023/05/16 11:26:23;;;;;;;;;;;14.80;99.90;;;;;;8380357;28;20371;-75
2023/05/16 11:30:25;;;;;;;;;;;15.00;99.90;;;;;;8371515;28;19928;-75
2023/05/16 11:34:27;;;;;;;;;;;15.10;99.90;;;;;;8371896;28;19928;-74
2023/05/16 11:38:29;;;;;;;;;;;15.20;99.90;;;;;;8368846;28;19975;-76
2023/05/16 11:42:38;;;;;;;;;;;15.00;99.90;;;;;;8370866;28;20299;-75
2023/05/16 11:46:39;;;;;;;;;;;14.90;99.90;;;;;;8364769;28;19932;-75
2023/05/16 11:50:41;;;;;;;;;;;14.80;99.90;;;;;;8349652;28;19924;-75
2023/05/16 11:54:43;;;;;;;;;;;14.70;99.90;;;;;;8363607;28;19936;-75
2023/05/16 11:58:44;;;;;;;;;;;14.60;99.90;;;;;;8362304;28;20380;-75
2023/05/16 12:02:47;;;;;;;;;;;14.50;99.90;;;;;;8366038;28;19932;-75
2023/05/16 12:06:57;;;;;;;;;;;14.40;99.90;;;;;;8367290;28;20422;-75
2023/05/16 12:10:59;;;;;;;;;;;14.30;99.90;;;;;;8375153;28;19925;-75
2023/05/16 12:15:02;;;;;;;;;;;14.30;99.90;;;;;;8357756;28;20234;-75
2023/05/16 12:19:05;;;;;;;;;;;14.20;99.90;;;;;;8373359;28;19935;-75
2023/05/16 12:23:11;;;;;;;;;;;14.20;99.90;;;;;;8386973;28;19928;-75
2023/05/16 12:27:20;;;;;;;;;;;14.30;99.90;;;;;;8371612;28;19925;-75
2023/05/16 12:31:21;;;;;;;;;;;14.50;99.90;;;;;;8372446;28;19986;-75
2023/05/16 12:35:32;;;;;;;;;;;14.70;99.90;;;;;;8378076;28;20086;-76
2023/05/16 12:39:38;;;;;;;;;;;14.70;99.90;;;;;;8358963;28;19932;-75
2023/05/16 12:43:39;;;;;;;;;;;14.70;99.90;;;;;;8376203;28;19924;-75
2023/05/16 12:47:41;;;;;;;;;;;14.60;99.90;;;;;;8375945;28;19925;-75
2023/05/16 12:51:50;;;;;;;;;;;14.60;99.90;;;;;;8375929;28;19939;-75
2023/05/16 12:55:52;;;;;;;;;;;14.50;99.90;;;;;;8360541;28;19928;-75
2023/05/16 12:59:54;;;;;;;;;;;14.50;99.90;;;;;;8371320;28;20292;-76
2023/05/16 13:03:56;;;;;;;;;;;14.40;99.90;;;;;;8370134;28;19990;-75
2023/05/16 13:07:58;;;;;;;;;;;14.40;99.90;;;;;;8367323;28;20051;-75
2023/05/16 13:12:00;;;;;;;;;;;14.30;99.90;;;;;;8369682;28;19925;-75
2023/05/16 13:16:03;;;;;;;;;;;14.20;99.90;;;;;;8364277;28;19931;-74
2023/05/16 13:20:08;;;;;;;;;;;14.20;99.90;;;;;;8371901;28;19975;-74
2023/05/16 13:24:10;;;;;;;;;;;14.10;99.90;;;;;;8374853;28;20303;-75
2023/05/16 13:28:12;;;;;;;;;;;14.10;99.90;;;;;;8373028;28;19935;-75
2023/05/16 13:32:14;;;;;;;;;;;14.10;99.90;;;;;;8378149;28;19925;-75
2023/05/16 13:36:15;;;;;;;;;;;14.20;99.90;;;;;;8362777;28;19931;-74
2023/05/16 13:40:17;;;;;;;;;;;14.20;99.90;;;;;;8383185;28;19939;-75
2023/05/16 13:44:19;;;;;;;;;;;14.20;99.90;;;;;;8355323;28;20307;-76
2023/05/16 13:48:20;;;;;;;;;;;14.30;99.90;;;;;;8369963;28;20132;-75
2023/05/16 13:52:22;;;;;;;;;;;14.30;99.90;;;;;;8368144;28;19952;-76
2023/05/16 13:56:24;;;;;;;;;;;14.40;99.90;;;;;;8366986;28;19932;-75
2023/05/16 14:00:26;;;;;;;;;;;14.40;99.90;;;;;;8358879;28;19979;-75
2023/05/16 14:04:44;;;;;;;;;;;14.60;99.90;;;;;;8305371;28;1737428;-75
2023/05/16 14:08:47;;;;;;;;;;;14.70;99.90;;;;;;8363781;28;19928;-75
2023/05/16 14:12:48;;;;;;;;;;;14.70;99.90;;;;;;8368359;28;19979;-75
2023/05/16 14:16:50;;;;;;;;;;;14.70;99.90;;;;;;8380064;28;19932;-75
2023/05/16 14:20:55;;;;;;;;;;;14.70;99.90;;;;;;8366926;28;19928;-75
2023/05/16 14:24:56;;;;;;;;;;;14.90;99.90;;;;;;8371905;28;19969;-75
2023/05/16 14:28:58;;;;;;;;;;;15.20;99.90;;;;;;8374326;28;20364;-75
2023/05/16 14:33:01;;;;;;;;;;;15.50;99.90;;;;;;8358269;28;20319;-75
2023/05/16 14:37:02;;;;;;;;;;;15.60;99.90;;;;;;8373414;28;19987;-74
2023/05/16 14:41:04;;;;;;;;;;;15.50;99.90;;;;;;8358351;28;19928;-74
2023/05/16 14:45:06;;;;;;;;;;;15.30;99.90;;;;;;8372028;28;19925;-74
2023/05/16 14:49:08;;;;;;;;;;;15.20;99.90;;;;;;8370845;28;20272;-75
2023/05/16 14:53:10;;;;;;;;;;;15.10;99.90;;;;;;8372866;28;21824;-75
2023/05/16 14:57:11;;;;;;;;;;;15.10;99.90;;;;;;8365935;28;20261;-75
2023/05/16 15:01:15;;;;;;;;;;;15.00;99.90;;;;;;8352953;28;19951;-74
2023/05/16 15:05:17;;;;;;;;;;;15.00;99.90;;;;;;8356097;28;19932;-75
2023/05/16 15:09:19;;;;;;;;;;;15.10;99.90;;;;;;8359257;28;19929;-74
2023/05/16 15:13:21;;;;;;;;;;;15.40;99.90;;;;;;8362849;28;19926;-74
2023/05/16 15:17:23;;;;;;;;;;;15.90;99.90;;;;;;8359558;28;19933;-75
2023/05/16 15:21:24;;;;;;;;;;;16.30;99.90;;;;;;8370373;28;19974;-75
2023/05/16 15:25:26;;;;;;;;;;;16.60;99.90;;;;;;8365642;28;19936;-75
2023/05/16 15:29:28;;;;;;;;;;;16.90;99.90;;;;;;8366439;28;19933;-75
2023/05/16 15:33:30;;;;;;;;;;;16.70;99.90;;;;;;8345401;28;19982;-75
2023/05/16 15:37:32;;;;;;;;;;;16.60;99.90;;;;;;8347612;28;20462;-75
2023/05/16 15:41:33;;;;;;;;;;;16.60;99.90;;;;;;8360102;28;20288;-74
2023/05/16 15:45:55;;;;;;;;;;;16.60;99.90;;;;;;8351891;28;20303;-74
2023/05/16 15:49:56;;;;;;;;;;;16.40;99.90;;;;;;8362015;28;19955;-75
2023/05/16 15:53:58;;;;;;;;;;;16.10;99.90;;;;;;8365322;28;19978;-75
2023/05/16 15:58:00;;;;;;;;;;;15.80;99.90;;;;;;8365201;28;19928;-74
2023/05/16 16:02:05;;;;;;;;;;;15.50;99.90;;;;;;8345923;28;20312;-75
2023/05/16 16:06:06;;;;;;;;;;;15.20;99.90;;;;;;8365010;28;19929;-74
2023/05/16 16:10:08;;;;;;;;;;;15.10;99.90;;;;;;8364550;28;19929;-75
2023/05/16 16:14:10;;;;;;;;;;;14.90;99.90;;;;;;8362633;28;19925;-75
2023/05/16 16:18:12;;;;;;;;;;;14.70;99.90;;;;;;8364060;28;20633;-74
2023/05/16 16:22:15;;;;;;;;;;;14.60;99.90;;;;;;8361655;28;19964;-75
2023/05/16 16:26:17;;;;;;;;;;;14.50;99.90;;;;;;8362025;28;19986;-75
2023/05/16 16:30:19;;;;;;;;;;;14.50;99.90;;;;;;8363747;28;20398;-74
2023/05/16 16:34:20;;;;;;;;;;;14.40;99.90;;;;;;8374457;28;19925;-75
2023/05/16 16:38:23;;;;;;;;;;;14.30;99.90;;;;;;8363456;28;19924;-75
2023/05/16 16:42:25;;;;;;;;;;;14.20;99.90;;;;;;8365400;28;19932;-74
2023/05/16 16:46:28;;;;;;;;;;;14.10;99.90;;;;;;8362374;28;19928;-74
2023/05/16 16:50:30;;;;;;;;;;;14.00;99.90;;;;;;8346233;28;19978;-74
2023/05/16 16:54:32;;;;;;;;;;;13.90;99.90;;;;;;8369101;28;20382;-74
2023/05/16 16:58:34;;;;;;;;;;;13.80;99.90;;;;;;8372219;28;19929;-74
2023/05/16 17:02:36;;;;;;;;;;;13.80;99.90;;;;;;8377312;28;20006;-74
2023/05/16 17:12:17;;;;;;;;;;;13.80;99.90;;;;;;8368579;28;20690;-74
2023/05/16 17:21:30;;;;;;;;;;;13.90;99.90;;;;;;8360516;28;19990;-74
2023/05/16 17:25:31;;;;;;;;;;;14.10;99.90;;;;;;8367515;28;20425;-74
2023/05/16 17:29:33;;;;;;;;;;;14.10;99.90;;;;;;8370157;28;20718;-74
2023/05/16 17:33:35;;;;;;;;;;;14.20;99.90;;;;;;8365032;28;19932;-74
2023/05/16 17:37:37;;;;;;;;;;;14.30;99.90;;;;;;8366014;28;20438;-75
2023/05/16 17:41:38;;;;;;;;;;;14.30;99.90;;;;;;8366687;28;19932;-75
2023/05/16 17:45:40;;;;;;;;;;;14.30;99.90;;;;;;8360282;28;19932;-75
2023/05/16 17:49:41;;;;;;;;;;;14.30;99.90;;;;;;8377862;28;19978;-75
2023/05/16 17:53:43;;;;;;;;;;;14.30;99.90;;;;;;8375448;28;19986;-74
2023/05/16 17:57:46;;;;;;;;;;;14.30;99.90;;;;;;8379040;28;19932;-74
2023/05/16 18:01:47;;;;;;;;;;;14.30;99.90;;;;;;8376028;28;19928;-74
2023/05/16 18:05:49;;;;;;;;;;;14.40;99.90;;;;;;8368658;28;19958;-74
2023/05/16 18:09:51;;;;;;;;;;;14.40;99.90;;;;;;8369203;28;20297;-74
2023/05/16 18:13:53;;;;;;;;;;;14.40;99.90;;;;;;8364254;28;20361;-74
2023/05/16 18:17:55;;;;;;;;;;;14.40;99.90;;;;;;8365380;28;20009;-73
2023/05/16 18:21:58;;;;;;;;;;;14.30;99.90;;;;;;8365794;28;19964;-74
2023/05/16 18:26:00;;;;;;;;;;;14.30;99.90;;;;;;8372403;28;19948;-74
2023/05/16 18:30:02;;;;;;;;;;;14.20;99.90;;;;;;8372294;28;19928;-74
2023/05/16 18:34:04;;;;;;;;;;;14.10;99.90;;;;;;8345663;28;20304;-74
2023/05/16 18:38:06;;;;;;;;;;;14.10;99.90;;;;;;8362653;28;20338;-74
2023/05/16 18:42:11;;;;;;;;;;;14.10;99.90;;;;;;8363125;28;19933;-74
2023/05/16 18:46:12;;;;;;;;;;;14.10;99.90;;;;;;8378114;28;19978;-73
2023/05/16 18:50:14;;;;;;;;;;;14.10;99.90;;;;;;8373125;28;19932;-73
2023/05/16 18:54:16;;;;;;;;;;;14.10;99.90;;;;;;8347639;28;19929;-73
2023/05/16 18:58:18;;;;;;;;;;;14.10;99.90;;;;;;8370765;28;19974;-74
2023/05/16 19:02:19;;;;;;;;;;;14.00;99.90;;;;;;8365993;28;19933;-73
2023/05/16 19:06:31;;;;;;;;;;;14.00;99.90;;;;;;8364140;28;19924;-74
2023/05/16 19:10:36;;;;;;;;;;;13.90;99.90;;;;;;8369041;28;19925;-73
2023/05/16 19:14:38;;;;;;;;;;;13.90;99.90;;;;;;8361834;28;19981;-73
2023/05/16 19:18:40;;;;;;;;;;;13.90;99.90;;;;;;8364911;28;20312;-73
2023/05/16 19:22:42;;;;;;;;;;;13.80;99.90;;;;;;8363352;28;20304;-73
2023/05/16 19:26:43;;;;;;;;;;;13.70;99.90;;;;;;8379269;28;19933;-74
2023/05/16 19:30:45;;;;;;;;;;;13.60;99.90;;;;;;8356795;28;19928;-74
2023/05/16 19:34:47;;;;;;;;;;;13.50;99.90;;;;;;8371701;28;21193;-73
2023/05/16 19:38:48;;;;;;;;;;;13.40;99.90;;;;;;8355900;28;19925;-73
2023/05/16 19:42:50;;;;;;;;;;;13.30;99.90;;;;;;8357190;28;20304;-73
2023/05/16 19:46:53;;;;;;;;;;;13.20;99.90;;;;;;8360978;28;19982;-74
2023/05/16 19:50:54;;;;;;;;;;;13.20;99.90;;;;;;8357792;28;19928;-73
2023/05/16 19:54:56;;;;;;;;;;;13.10;99.90;;;;;;8342134;28;19940;-74
2023/05/16 19:58:58;;;;;;;;;;;13.00;99.90;;;;;;8360764;28;19925;-74
2023/05/16 20:03:00;;;;;;;;;;;13.00;99.90;;;;;;8356169;28;20444;-74
2023/05/16 20:07:01;;;;;;;;;;;12.90;99.90;;;;;;8350708;28;20337;-74
2023/05/16 20:36:21;;;;;;;;;;;12.40;99.90;;;;;;8365214;28;19935;-73
2023/05/16 20:40:23;;;;;;;;;;;12.40;99.90;;;;;;8361126;28;19933;-74
2023/05/16 20:44:25;;;;;;;;;;;12.30;99.90;;;;;;8364006;28;19925;-74
2023/05/16 20:48:26;;;;;;;;;;;12.30;99.90;;;;;;8359141;28;19962;-73
2023/05/16 20:52:28;;;;;;;;;;;12.20;99.90;;;;;;8369145;28;20360;-73
2023/05/16 20:56:30;;;;;;;;;;;12.20;99.90;;;;;;8347966;28;20368;-73
2023/05/16 21:00:32;;;;;;;;;;;12.20;99.90;;;;;;8369210;28;19931;-73
2023/05/16 21:04:35;;;;;;;;;;;12.10;99.90;;;;;;8363849;28;19925;-73
2023/05/16 21:08:36;;;;;;;;;;;12.10;99.90;;;;;;8376430;28;19925;-73
2023/05/16 21:12:38;;;;;;;;;;;12.10;99.90;;;;;;8391717;28;19924;-73
2023/05/16 21:16:40;;;;;;;;;;;12.00;99.90;;;;;;8389765;28;20384;-73
2023/05/16 21:20:42;;;;;;;;;;;12.00;99.90;;;;;;8391058;28;19932;-73
2023/05/16 21:24:43;;;;;;;;;;;12.00;99.90;;;;;;8401824;28;19978;-74
2023/05/16 21:28:45;;;;;;;;;;;11.90;99.90;;;;;;8373581;28;19925;-74
2023/05/16 21:32:51;;;;;;;;;;;11.90;99.90;;;;;;8391498;28;19928;-73
2023/05/16 21:36:53;;;;;;;;;;;11.80;99.90;;;;;;8387480;28;19924;-73
2023/05/16 21:40:56;;;;;;;;;;;11.80;99.90;;;;;;8392771;28;19986;-74
2023/05/16 21:44:58;;;;;;;;;;;11.70;99.90;;;;;;8383479;28;19986;-74
2023/05/16 21:48:59;;;;;;;;;;;11.70;99.90;;;;;;8386388;28;20665;-73
2023/05/16 21:53:01;;;;;;;;;;;11.70;99.90;;;;;;8389922;28;20384;-73
2023/05/16 21:57:03;;;;;;;;;;;11.60;99.90;;;;;;8391071;28;19925;-74
2023/05/16 22:01:05;;;;;;;;;;;11.60;99.90;;;;;;8371745;28;19934;-73
2023/05/16 22:05:07;;;;;;;;;;;11.60;99.90;;;;;;8386671;28;19926;-74
2023/05/16 22:09:10;;;;;;;;;;;11.50;99.90;;;;;;8390385;28;19933;-73
2023/05/16 22:13:12;;;;;;;;;;;11.50;99.90;;;;;;8368446;28;19925;-73
2023/05/16 22:17:13;;;;;;;;;;;11.50;99.90;;;;;;8389516;28;20272;-73
2023/05/16 22:21:15;;;;;;;;;;;11.50;99.90;;;;;;8387923;28;20038;-73
2023/05/16 22:25:17;;;;;;;;;;;11.50;99.90;;;;;;8384927;28;19954;-73
2023/05/16 22:29:19;;;;;;;;;;;11.50;99.90;;;;;;8386044;28;19925;-73
2023/05/16 22:33:22;;;;;;;;;;;11.40;99.90;;;;;;8363164;28;19936;-74
2023/05/16 22:37:24;;;;;;;;;;;11.40;99.90;;;;;;8377684;28;19924;-74
2023/05/16 22:41:27;;;;;;;;;;;11.40;99.90;;;;;;8388760;28;19940;-74
2023/05/16 22:45:29;;;;;;;;;;;11.40;99.90;;;;;;8369828;28;19924;-73
2023/05/16 22:49:31;;;;;;;;;;;11.40;99.90;;;;;;8383265;28;19975;-74
2023/05/16 22:53:32;;;;;;;;;;;11.30;99.90;;;;;;8390546;28;19928;-74
2023/05/16 22:57:34;;;;;;;;;;;11.30;99.90;;;;;;8372248;28;20288;-74
2023/05/16 23:01:36;;;;;;;;;;;11.20;99.90;;;;;;8389949;28;19925;-74
2023/05/16 23:05:37;;;;;;;;;;;11.20;99.90;;;;;;8379228;28;19925;-74
2023/05/16 23:09:39;;;;;;;;;;;11.20;99.90;;;;;;8389942;28;19951;-74
2023/05/16 23:13:41;;;;;;;;;;;11.20;99.90;;;;;;8387948;28;19932;-74
2023/05/16 23:17:42;;;;;;;;;;;11.10;99.90;;;;;;8381062;28;19925;-74
2023/05/16 23:21:44;;;;;;;;;;;11.10;99.90;;;;;;8381114;28;20042;-74
2023/05/16 23:25:47;;;;;;;;;;;11.10;99.90;;;;;;8385224;28;20422;-74
2023/05/16 23:29:49;;;;;;;;;;;11.10;99.90;;;;;;8383896;28;20346;-74
2023/05/16 23:33:50;;;;;;;;;;;11.10;99.90;;;;;;8371079;28;19925;-74
2023/05/16 23:37:52;;;;;;;;;;;11.00;99.90;;;;;;8383169;28;19935;-74
2023/05/16 23:41:54;;;;;;;;;;;11.00;99.90;;;;;;8387937;28;19925;-73
2023/05/16 23:45:56;;;;;;;;;;;11.00;99.90;;;;;;8384974;28;19932;-74
2023/05/16 23:49:57;;;;;;;;;;;11.00;99.90;;;;;;8383614;28;19932;-74
2023/05/16 23:53:59;;;;;;;;;;;11.00;99.90;;;;;;8369785;28;19970;-74
2023/05/16 23:58:01;;;;;;;;;;;10.90;99.90;;;;;;8400115;28;20294;-73
